Time;durP1;ratioP1;P1;durP2;ratioP2;P2;SDS_P1;SDS_P2;PMS_P1;PMS_P2;Temp;Humidity;BMP_temperature;BMP_pressure;BME280_temperature;BME280_humidity;BME280_pressure;Samples;Min_cycle;Max_cycle;Signal;HPM_P1;HPM_P2
2021/01/26 00:06:46;;;;;;;1999.90;999.90;;;;;;;4.32;69.10;100394.84;15619555;28;20128;-54
2021/01/26 00:14:19;;;;;;;1999.90;999.90;;;;;;;4.40;68.54;100404.41;15619462;28;20304;-58
2021/01/26 00:21:51;;;;;;;1999.90;999.90;;;;;;;4.25;69.30;100397.16;15617741;28;20080;-58
2021/01/26 00:29:24;;;;;;;1999.90;999.90;;;;;;;4.15;69.21;100402.00;15618226;28;20069;-56
2021/01/26 00:36:56;;;;;;;1999.90;999.90;;;;;;;3.79;69.69;100407.19;15618281;28;20076;-57
2021/01/26 00:44:29;;;;;;;1999.90;999.90;;;;;;;4.12;68.84;100413.66;15618137;28;20049;-58
2021/01/26 00:52:03;;;;;;;1999.90;999.90;;;;;;;4.01;68.79;100430.34;15617123;28;20068;-56
2021/01/26 00:59:36;;;;;;;1999.90;999.90;;;;;;;4.15;68.47;100422.16;15599353;28;20057;-58
2021/01/26 01:07:09;;;;;;;1999.90;999.90;;;;;;;3.83;68.77;100438.59;15614743;28;20076;-55
2021/01/26 01:14:43;;;;;;;;;;;;;;;4.47;66.85;100432.47;15616604;28;20053;-58
2021/01/26 01:22:17;;;;;;;1999.90;999.90;;;;;;;3.98;67.74;100450.28;15597510;28;19921;-57
2021/01/26 01:29:52;;;;;;;1999.90;999.90;;;;;;;4.09;67.62;100437.16;15614308;28;20405;-58
2021/01/26 01:37:28;;;;;;;1999.90;999.90;;;;;;;3.68;68.33;100439.59;15612945;28;20084;-51
2021/01/26 01:45:06;;;;;;;1999.90;999.90;;;;;;;3.84;67.74;100452.09;15612560;28;20128;-57
2021/01/26 01:52:39;;;;;;;1999.90;999.90;;;;;;;3.83;67.40;100439.41;15612963;28;20042;-55
2021/01/26 02:00:15;;;;;;;1999.90;999.90;;;;;;;3.96;67.14;100444.25;15612934;28;20037;-56
2021/01/26 02:07:48;;;;;;;1999.90;999.90;;;;;;;3.59;68.02;100446.88;15612999;28;20036;-54
2021/01/26 02:15:21;;;;;;;1999.90;999.90;;;;;;;3.89;67.68;100438.25;15613340;28;20044;-57
2021/01/26 02:23:21;;;;;;;1999.90;999.90;;;;;;;3.94;66.95;100448.38;15613519;28;20084;-55
2021/01/26 02:31:15;;;;;;;1999.90;999.90;;;;;;;3.52;68.37;100460.19;15612819;28;20057;-56
2021/01/26 02:39:07;;;;;;;1999.90;999.90;;;;;;;3.57;68.20;100458.22;15611435;28;20048;-55
2021/01/26 02:46:45;;;;;;;1999.90;999.90;;;;;;;3.69;68.10;100464.16;15610648;28;20037;-55
2021/01/26 02:54:25;;;;;;;1999.90;999.90;;;;;;;3.40;68.39;100461.41;15612376;28;20114;-53
2021/01/26 03:02:04;;;;;;;1999.90;999.90;;;;;;;3.49;67.80;100464.38;15612463;28;20073;-53
2021/01/26 03:09:40;;;;;;;1999.90;999.90;;;;;;;3.43;67.99;100473.78;15612111;28;20073;-54
2021/01/26 03:17:18;;;;;;;1999.90;999.90;;;;;;;3.13;68.11;100473.00;15615060;28;20054;-57
2021/01/26 03:24:53;;;;;;;1999.90;999.90;;;;;;;3.03;68.50;100475.03;15623255;28;20090;-55
2021/01/26 03:32:31;;;;;;;1999.90;999.90;;;;;;;2.91;68.60;100469.84;15621780;28;20051;-56
2021/01/26 03:40:05;;;;;;;1999.90;999.90;;;;;;;2.90;68.13;100476.47;15620706;28;20115;-57
2021/01/26 03:47:44;;;;;;;1999.90;999.90;;;;;;;2.62;69.13;100474.50;15620482;28;20416;-56
2021/01/26 03:55:25;;;;;;;1999.90;999.90;;;;;;;2.58;69.00;100475.06;15620567;28;20038;-56
2021/01/26 04:03:26;;;;;;;1999.90;999.90;;;;;;;2.52;68.87;100476.22;15620524;28;20140;-52
2021/01/26 04:11:06;;;;;;;1999.90;999.90;;;;;;;2.37;69.51;100478.22;15616303;28;20049;-55
2021/01/26 04:18:42;;;;;;;1999.90;999.90;;;;;;;2.39;69.21;100479.59;15618967;28;20045;-58
2021/01/26 04:26:18;;;;;;;1999.90;999.90;;;;;;;2.22;69.62;100488.22;15619036;28;20037;-54
2021/01/26 04:33:51;;;;;;;1999.90;999.90;;;;;;;2.08;70.02;100484.44;15618861;28;20275;-58
2021/01/26 04:41:32;;;;;;;1999.90;999.90;;;;;;;2.15;69.82;100481.38;15618393;28;20056;-52
2021/01/26 04:49:12;;;;;;;1999.90;999.90;;;;;;;2.09;70.14;100479.78;15599159;28;20056;-54
2021/01/26 04:56:54;;;;;;;1999.90;999.90;;;;;;;1.83;70.41;100484.53;15616390;28;20073;-58
2021/01/26 05:04:32;;;;;;;1999.90;999.90;;;;;;;1.86;70.27;100483.97;15616096;28;20054;-55
2021/01/26 05:12:08;;;;;;;1999.90;999.90;;;;;;;2.00;69.31;100483.09;15615031;28;20485;-55
2021/01/26 05:19:45;;;;;;;1999.90;999.90;;;;;;;1.87;69.42;100491.94;15615638;28;20044;-56
2021/01/26 05:27:17;;;;;;;1999.90;999.90;;;;;;;1.72;69.69;100495.56;15614580;28;20081;-56
2021/01/26 05:34:51;;;;;;;1999.90;999.90;;;;;;;1.80;69.21;100490.63;15613022;28;20053;-57
2021/01/26 05:42:25;;;;;;;1999.90;999.90;;;;;;;1.66;69.21;100493.94;15613920;28;20490;-56
2021/01/26 05:49:58;;;;;;;1999.90;999.90;;;;;;;1.77;68.96;100493.91;15613773;28;20038;-55
2021/01/26 05:57:32;;;;;;;;;;;;;;;1.76;68.88;100501.34;15612002;28;20049;-56
2021/01/26 06:05:10;;;;;;;1999.90;999.90;;;;;;;1.54;68.80;100503.59;15608831;28;20426;-58
2021/01/26 06:12:51;;;;;;;1999.90;999.90;;;;;;;1.79;68.63;100516.47;15610926;28;20115;-57
2021/01/26 06:20:24;;;;;;;1999.90;999.90;;;;;;;1.88;68.38;100517.56;15610519;28;20073;-57
2021/01/26 06:28:06;;;;;;;;;;;;;;;2.11;67.73;100519.66;15612945;28;20107;-57
2021/01/26 06:35:46;;;;;;;1999.90;999.90;;;;;;;1.92;68.71;100530.47;15612923;28;19921;-58
2021/01/26 06:43:36;;;;;;;1999.90;999.90;;;;;;;2.18;67.95;100541.38;15612172;28;20072;-56
2021/01/26 06:51:28;;;;;;;1999.90;999.90;;;;;;;2.15;67.75;100539.19;15614171;28;20075;-58
2021/01/26 06:59:28;;;;;;;1999.90;999.90;;;;;;;2.31;67.82;100543.53;15624548;28;20057;-56
2021/01/26 07:07:27;;;;;;;1999.90;999.90;;;;;;;2.34;67.25;100542.13;15624778;28;20045;-55
2021/01/26 07:15:15;;;;;;;1999.90;999.90;;;;;;;2.38;67.32;100546.78;15623482;28;20050;-57
2021/01/26 07:23:20;;;;;;;1999.90;999.90;;;;;;;2.51;66.90;100559.97;15623284;28;20103;-55
2021/01/26 07:30:57;;;;;;;1999.90;999.90;;;;;;;2.53;67.04;100554.16;15570125;28;20065;-58
2021/01/26 07:38:35;;;;;;;1999.90;999.90;;;;;;;2.44;67.38;100564.13;15560627;28;20046;-58
2021/01/26 07:46:16;;;;;;;1999.90;999.90;;;;;;;2.68;66.74;100567.84;15560850;28;20134;-58
2021/01/26 07:53:56;;;;;;;1999.90;999.90;;;;;;;2.87;66.98;100568.00;15559935;28;20104;-58
2021/01/26 08:01:34;;;;;;;1999.90;999.90;;;;;;;2.58;67.57;100567.91;15558586;28;20057;-57
2021/01/26 08:09:11;;;;;;;1999.90;999.90;;;;;;;2.90;67.10;100579.28;15565626;28;20125;-58
2021/01/26 08:16:45;;;;;;;1999.90;999.90;;;;;;;2.87;66.91;100592.81;15599676;28;20121;-56
2021/01/26 08:24:27;;;;;;;;;;;;;;;3.23;66.17;100596.19;15617278;28;20417;-57
2021/01/26 08:32:37;;;;;;;1999.90;999.90;;;;;;;3.50;66.49;100603.13;15609908;28;20377;-59
2021/01/26 08:40:17;;;;;;;1999.90;999.90;;;;;;;3.15;66.45;100600.38;15615917;28;20038;-58
2021/01/26 08:47:51;;;;;;;1999.90;999.90;;;;;;;3.50;66.20;100598.44;15616383;28;20061;-59
2021/01/26 08:55:38;;;;;;;1999.90;999.90;;;;;;;3.99;65.43;100609.28;15614365;28;20037;-59
2021/01/26 09:03:43;;;;;;;1999.90;999.90;;;;;;;4.74;62.99;100616.16;15615839;28;20370;-59
2021/01/26 09:11:21;;;;;;;1999.90;999.90;;;;;;;5.93;59.35;100626.78;15558732;28;20409;-57
2021/01/26 09:18:54;;;;;;;1999.90;999.90;;;;;;;7.20;56.49;100637.28;15610519;28;20042;-58
2021/01/26 09:26:31;;;;;;;1999.90;999.90;;;;;;;7.97;53.04;100644.56;15588724;28;20065;-58
2021/01/26 09:34:05;;;;;;;1999.90;999.90;;;;;;;8.68;51.27;100654.59;15612589;28;20057;-54
2021/01/26 09:41:38;;;;;;;1999.90;999.90;;;;;;;8.78;52.16;100661.00;15573546;28;20045;-58
2021/01/26 09:49:13;;;;;;;1999.90;999.90;;;;;;;8.99;50.62;100669.59;15596395;28;20049;-56
2021/01/26 09:56:47;;;;;;;1999.90;999.90;;;;;;;9.56;49.62;100681.44;15608382;28;20049;-55
2021/01/26 10:04:21;;;;;;;1999.90;999.90;;;;;;;9.08;50.26;100673.22;15611420;28;20049;-59
2021/01/26 10:12:14;;;;;;;1999.90;999.90;;;;;;;9.76;49.00;100682.75;15604484;28;20064;-57
2021/01/26 10:19:47;;;;;;;1999.90;999.90;;;;;;;9.91;48.70;100687.03;15610045;28;20111;-58
2021/01/26 10:27:21;;;;;;;1999.90;999.90;;;;;;;11.35;46.42;100695.53;15609286;28;20041;-57
2021/01/26 10:34:54;;;;;;;1999.90;999.90;;;;;;;10.70;47.98;100698.50;15609876;28;20109;-59
2021/01/26 10:42:26;;;;;;;1999.90;999.90;;;;;;;9.24;50.01;100700.25;15627137;28;20115;-60
2021/01/26 10:50:02;;;;;;;1999.90;999.90;;;;;;;9.23;50.40;100695.00;15612070;28;20132;-59
2021/01/26 10:57:33;;;;;;;1999.90;999.90;;;;;;;10.03;49.15;100692.75;15612964;28;20045;-59
2021/01/26 11:05:08;;;;;;;1999.90;999.90;;;;;;;9.89;49.69;100700.47;15612187;28;20085;-58
2021/01/26 11:12:40;;;;;;;1999.90;999.90;;;;;;;9.01;51.66;100690.38;15613155;28;20069;-55
2021/01/26 11:20:13;;;;;;;1999.90;999.90;;;;;;;8.93;52.29;100691.16;15593685;28;20454;-55
2021/01/26 11:27:46;;;;;;;1999.90;999.90;;;;;;;12.36;44.76;100701.78;15609298;28;20037;-57
2021/01/26 11:35:20;;;;;;;1999.90;999.90;;;;;;;11.34;45.69;100714.28;15609565;28;20045;-58
2021/01/26 11:42:52;;;;;;;1999.90;999.90;;;;;;;9.88;50.48;100698.81;15621287;28;20149;-58
2021/01/26 11:50:25;;;;;;;1999.90;999.90;;;;;;;11.61;45.89;100709.34;15622072;28;20478;-59
2021/01/26 11:57:57;;;;;;;1999.90;999.90;;;;;;;11.76;45.61;100708.72;15622344;28;20073;-60
2021/01/26 12:05:32;;;;;;;1999.90;999.90;;;;;;;9.11;50.88;100698.44;15577427;22;20060;-63
2021/01/26 12:13:05;;;;;;;1999.90;999.90;;;;;;;11.10;47.47;100697.34;15564442;28;20056;-65
2021/01/26 12:20:40;;;;;;;1999.90;999.90;;;;;;;15.94;38.03;100698.41;15562557;28;20042;-64
2021/01/26 12:28:15;;;;;;;1999.90;999.90;;;;;;;13.79;40.45;100698.91;15562340;28;20483;-64
2021/01/26 12:35:48;;;;;;;1999.90;999.90;;;;;;;10.23;48.44;100725.56;15562101;28;20507;-64
2021/01/26 12:43:22;;;;;;;1999.90;999.90;;;;;;;12.67;43.23;100734.88;15563439;28;20400;-64
2021/01/26 12:50:55;;;;;;;1999.90;999.90;;;;;;;10.50;48.03;100723.53;15561719;28;20049;-64
2021/01/26 12:58:26;;;;;;;1999.90;999.90;;;;;;;12.42;44.64;100742.38;15560102;28;20066;-64
2021/01/26 13:05:58;;;;;;;1999.90;999.90;;;;;;;12.22;43.62;100741.25;15561454;28;20038;-63
2021/01/26 13:13:31;;;;;;;1999.90;999.90;;;;;;;17.29;34.85;100739.56;15561829;28;20050;-64
2021/01/26 13:21:04;;;;;;;1999.90;999.90;;;;;;;13.65;40.92;100746.97;15555161;28;20033;-64
2021/01/26 13:28:35;;;;;;;1999.90;999.90;;;;;;;11.59;45.24;100750.78;15557081;28;20074;-63
2021/01/26 13:36:08;;;;;;;1999.90;999.90;;;;;;;10.33;48.32;100757.88;15525089;28;20053;-63
2021/01/26 13:43:40;;;;;;;1999.90;999.90;;;;;;;9.11;50.73;100768.03;15495416;28;20042;-63
2021/01/26 13:51:13;;;;;;;1999.90;999.90;;;;;;;8.00;53.95;100771.72;15495179;28;20139;-63
2021/01/26 13:58:44;;;;;;;1999.90;999.90;;;;;;;8.04;54.50;100768.03;15494551;28;20775;-64
2021/01/26 14:06:17;;;;;;;1999.90;999.90;;;;;;;7.77;55.41;100780.03;15495801;28;20051;-63
2021/01/26 14:13:49;;;;;;;1999.90;999.90;;;;;;;8.00;55.38;100792.00;15535319;28;20474;-63
2021/01/26 14:21:22;;;;;;;1999.90;999.90;;;;;;;7.48;56.22;100790.69;15555138;28;20520;-64
2021/01/26 14:28:53;;;;;;;1999.90;999.90;;;;;;;6.89;56.19;100796.06;15559497;28;20053;-61
2021/01/26 14:36:26;;;;;;;1999.90;999.90;;;;;;;7.04;56.64;100796.88;15552971;28;20129;-63
2021/01/26 14:43:57;;;;;;;1999.90;999.90;;;;;;;6.97;57.28;100808.38;15552796;28;20050;-63
2021/01/26 14:51:30;;;;;;;1999.90;999.90;;;;;;;6.64;58.67;100816.75;15553814;28;20394;-63
2021/01/26 14:59:01;;;;;;;1999.90;999.90;;;;;;;6.40;59.40;100826.31;15554691;28;20049;-63
2021/01/26 15:06:33;;;;;;;1999.90;999.90;;;;;;;5.97;60.32;100831.97;15554421;28;20095;-63
2021/01/26 15:14:06;;;;;;;1999.90;999.90;;;;;;;6.15;60.28;100820.09;15560379;28;20048;-63
2021/01/26 15:21:38;;;;;;;1999.90;999.90;;;;;;;6.03;60.40;100814.16;15564769;28;20081;-63
2021/01/26 15:29:09;;;;;;;1999.90;999.90;;;;;;;6.15;60.05;100833.06;15566251;28;20041;-63
2021/01/26 15:36:42;;;;;;;1999.90;999.90;;;;;;;6.02;60.62;100827.19;15561831;28;20529;-63
2021/01/26 15:44:14;;;;;;;1999.90;999.90;;;;;;;6.06;60.46;100838.50;15562860;28;20062;-61
2021/01/26 15:51:47;;;;;;;1999.90;999.90;;;;;;;5.97;60.62;100854.97;15565328;28;20132;-62
2021/01/26 15:59:18;;;;;;;1999.90;999.90;;;;;;;5.81;60.48;100845.19;15562553;28;20132;-65
2021/01/26 16:06:51;;;;;;;1999.90;999.90;;;;;;;5.68;61.08;100846.75;15557093;28;20100;-63
2021/01/26 16:14:25;;;;;;;1999.90;999.90;;;;;;;5.56;61.40;100854.66;15555278;28;20046;-63
2021/01/26 16:21:57;;;;;;;1999.90;999.90;;;;;;;5.36;62.56;100864.03;15549723;28;20046;-64
2021/01/26 16:29:28;;;;;;;1999.90;999.90;;;;;;;5.77;61.65;100878.19;15551851;28;20049;-63
2021/01/26 16:37:01;;;;;;;1999.90;999.90;;;;;;;5.42;62.86;100881.41;15528981;28;20050;-64
2021/01/26 16:44:32;;;;;;;1999.90;999.90;;;;;;;5.20;63.66;100887.44;15542893;28;20181;-63
2021/01/26 16:52:05;;;;;;;1999.90;999.90;;;;;;;5.29;63.17;100880.16;15509633;28;20113;-63
2021/01/26 16:59:36;;;;;;;1999.90;999.90;;;;;;;5.32;63.25;100873.22;15530071;28;20046;-62
2021/01/26 17:07:09;;;;;;;1999.90;999.90;;;;;;;4.89;64.02;100879.44;15534933;28;20133;-62
2021/01/26 17:14:41;;;;;;;1999.90;999.90;;;;;;;5.10;64.36;100885.59;15540073;28;20046;-62
2021/01/26 17:22:14;;;;;;;1999.90;999.90;;;;;;;4.97;65.29;100902.88;15546429;28;20354;-64
2021/01/26 17:29:45;;;;;;;1999.90;999.90;;;;;;;5.29;63.58;100898.69;15559031;28;20041;-63
2021/01/26 17:37:18;;;;;;;1999.90;999.90;;;;;;;4.77;65.09;100909.44;15519622;28;20459;-63
2021/01/26 17:44:49;;;;;;;1999.90;999.90;;;;;;;4.58;65.49;100905.72;15526332;28;20400;-64
2021/01/26 17:52:22;;;;;;;1999.90;999.90;;;;;;;4.81;65.17;100906.94;15583600;28;20449;-63
2021/01/26 17:59:53;;;;;;;1999.90;999.90;;;;;;;4.63;66.00;100911.22;15545596;22;20068;-61
2021/01/26 18:07:26;;;;;;;1999.90;999.90;;;;;;;4.57;65.60;100918.72;15587963;28;20041;-61
2021/01/26 18:14:57;;;;;;;1999.90;999.90;;;;;;;4.40;65.95;100918.28;15586813;28;20052;-60
2021/01/26 18:22:29;;;;;;;1999.90;999.90;;;;;;;4.68;65.13;100915.88;15547550;28;20084;-60
2021/01/26 18:30:01;;;;;;;1999.90;999.90;;;;;;;4.47;66.14;100917.97;15569315;28;20049;-61
2021/01/26 18:37:34;;;;;;;1999.90;999.90;;;;;;;4.58;65.37;100928.66;15596684;28;20491;-61
2021/01/26 18:45:09;;;;;;;1999.90;999.90;;;;;;;4.50;65.86;100918.22;15614157;28;20051;-60
2021/01/26 18:52:41;;;;;;;1999.90;999.90;;;;;;;4.60;65.89;100920.09;15573714;28;20509;-62
2021/01/26 19:00:15;;;;;;;1999.90;999.90;;;;;;;4.08;67.21;100920.72;15593075;28;20046;-61
2021/01/26 19:07:49;;;;;;;;;;;;;;;4.35;66.71;100938.47;15554286;28;20129;-59
2021/01/26 19:15:24;;;;;;;1999.90;999.90;;;;;;;4.26;67.05;100925.56;15543643;28;19926;-62
2021/01/26 19:22:56;;;;;;;1999.90;999.90;;;;;;;4.54;65.92;100929.53;15554416;28;20053;-62
2021/01/26 19:30:28;;;;;;;1999.90;999.90;;;;;;;4.56;65.85;100932.81;15521396;28;20054;-63
2021/01/26 19:38:01;;;;;;;1999.90;999.90;;;;;;;4.60;66.85;100931.97;15536088;28;20042;-63
2021/01/26 19:45:33;;;;;;;1999.90;999.90;;;;;;;4.67;65.84;100950.97;15554466;28;20520;-64
2021/01/26 19:53:06;;;;;;;1999.90;999.90;;;;;;;4.56;66.28;100958.50;15562038;28;20050;-61
2021/01/26 20:00:37;;;;;;;1999.90;999.90;;;;;;;4.18;67.45;100956.56;15605094;28;20041;-61
2021/01/26 20:08:11;;;;;;;1999.90;999.90;;;;;;;4.53;66.34;100956.34;15596141;28;20410;-61
2021/01/26 20:15:44;;;;;;;1999.90;999.90;;;;;;;4.47;67.09;100957.47;15581066;28;20391;-63
2021/01/26 20:23:17;;;;;;;1999.90;999.90;;;;;;;4.40;66.95;100965.28;15601784;28;20045;-61
2021/01/26 20:30:49;;;;;;;1999.90;999.90;;;;;;;4.40;66.51;100972.75;15600689;28;20049;-59
2021/01/26 20:38:22;;;;;;;1999.90;999.90;;;;;;;4.15;67.52;100991.09;15594513;28;20584;-62
2021/01/26 20:45:54;;;;;;;1999.90;999.90;;;;;;;4.16;67.35;101001.00;15579216;28;20052;-60
2021/01/26 20:53:27;;;;;;;1999.90;999.90;;;;;;;3.98;67.60;100991.44;15605017;28;20050;-62
2021/01/26 21:00:58;;;;;;;1999.90;999.90;;;;;;;3.95;68.24;101021.53;15561311;28;20203;-62
2021/01/26 21:08:33;;;;;;;1999.90;999.90;;;;;;;3.97;68.05;101006.38;15561563;28;20049;-64
2021/01/26 21:16:06;;;;;;;1999.90;999.90;;;;;;;4.10;68.35;101020.69;15547440;28;20077;-64
2021/01/26 21:23:38;;;;;;;1999.90;999.90;;;;;;;4.18;68.30;101031.13;15595165;28;20071;-62
2021/01/26 21:31:11;;;;;;;1999.90;999.90;;;;;;;4.11;68.18;101027.84;15600064;28;20453;-62
2021/01/26 21:38:43;;;;;;;1999.90;999.90;;;;;;;4.05;68.74;101027.03;15577350;28;20037;-63
2021/01/26 21:46:15;;;;;;;1999.90;999.90;;;;;;;3.96;69.63;101034.22;15556288;28;20041;-62
2021/01/26 21:53:47;;;;;;;1999.90;999.90;;;;;;;4.16;69.27;101034.16;15596045;28;20061;-62
2021/01/26 22:01:19;;;;;;;1999.90;999.90;;;;;;;4.31;69.10;101036.88;15599041;28;20087;-64
2021/01/26 22:08:51;;;;;;;1999.90;999.90;;;;;;;4.40;69.29;101034.34;15599840;28;20037;-60
2021/01/26 22:16:23;;;;;;;1999.90;999.90;;;;;;;4.34;69.73;101036.28;15575425;28;20128;-60
2021/01/26 22:23:55;;;;;;;1999.90;999.90;;;;;;;4.40;69.36;101034.34;15570263;28;20068;-60
2021/01/26 22:31:27;;;;;;;1999.90;999.90;;;;;;;4.35;69.94;101040.72;15574224;28;20099;-62
2021/01/26 22:38:59;;;;;;;1999.90;999.90;;;;;;;4.40;70.08;101045.41;15584689;28;20045;-61
2021/01/26 22:46:31;;;;;;;1999.90;999.90;;;;;;;4.44;69.71;101043.72;15577479;28;20042;-60
2021/01/26 22:54:04;;;;;;;1999.90;999.90;;;;;;;4.49;70.17;101043.69;15578165;28;20065;-61
2021/01/26 23:01:36;;;;;;;1999.90;999.90;;;;;;;4.34;70.04;101043.75;15595529;28;20449;-60
2021/01/26 23:09:10;;;;;;;1999.90;999.90;;;;;;;4.46;69.89;101051.72;15555674;28;20045;-61
2021/01/26 23:16:41;;;;;;;1999.90;999.90;;;;;;;4.29;70.11;101050.16;15575052;28;20087;-60
2021/01/26 23:24:15;;;;;;;1999.90;999.90;;;;;;;4.15;70.93;101046.31;15572997;28;20544;-60
2021/01/26 23:31:47;;;;;;;1999.90;999.90;;;;;;;4.22;70.78;101040.50;15557091;28;20419;-61
2021/01/26 23:39:19;;;;;;;1999.90;999.90;;;;;;;4.01;71.28;101048.88;15581842;28;20132;-61
2021/01/26 23:46:51;;;;;;;1999.90;999.90;;;;;;;3.92;70.95;101044.19;15570738;28;20433;-62
2021/01/26 23:54:24;;;;;;;1999.90;999.90;;;;;;;4.10;71.04;101048.28;15571807;28;20088;-62
